Aérodrome :
LOGIN :

S'inscrire | Disclaimer

   EN    FR    IT 

 










Légende :    VFR   VFR Marginal   IFR   IFR Intensif   IFR Très Intensif
Visi : 
Plafond : 
>= 8 km
>= 3000ft
5 à 8 km
1000 à 3000 ft
1500m à 5 km
500 à 1000 ft
800 à 1500m
200 à 500 ft
< 800m
< 200 ft
Symboles :   Orages  Brouillard  Fortes neiges  Fortes précipitations  Vent > 20 kt
SIGMETs :   Divers  Orages  Givrage  Turbulence  Onde Orograph.  Cendres Volcan.






- Altitude de l'aérodrome : 364 ft
- Code IATA : FRA


EDDF - Frankfurt Int.

DERNIER METAR :
  • 240250Z 22004KT 9999 OVC009 00/M02 Q1026 NOSIG

METARs EXPIRÉS :
  • 240220Z VRB02KT 9999 OVC009 00/M02 Q1026 NOSIG
  • 240150Z VRB02KT 9999 OVC009 01/M02 Q1026 NOSIG
  • 240120Z 19003KT 150V220 9999 OVC010 00/M02 Q1026 NOSIG
  • 240050Z 21005KT 9999 OVC010 00/M02 Q1027 NOSIG
  • 240020Z 21004KT 190V270 9999 OVC011 01/M02 Q1027 NOSIG

TAF TAF EDDF
Valide du 24 à 00h jusqu'au 25 à 06h UTC


232300Z 2400/2506 VRB03KT 9999 OVC012
TEMPO 2402/2410 3000 BR BKN008
PROB30
TEMPO 2405/2409 0800 FZFG BKN002
BECMG 2406/2409 20005KT
BECMG 2412/2416 SCT025
BECMG 2421/2424 4000 BR
TEMPO 2500/2506 0800 FZFG VV002



MET'MAP, la Météo Aéronautique d'un coup d'oeil ! - Copyright ORBIFLY Décembre 2007 - Disclaimer

ORBIFLY MET'MAP TEAM :

Programmation & Développement : Alexandra Zaïnal
Sur une idée originale de : Baudouin d'Aumeries
Assistance à la programmation : Marc-Olivier Méhu
Soutien technique & logistique : Manuel Goepfert

Contact : metmap@orbifly.com




SOURCES & CREDITS :

   NOAA